MST,Max TemperatureF,Mean TemperatureF,Min TemperatureF,Max Dew PointF,MeanDew PointF,Min DewpointF,Max Humidity, Mean Humidity, Min Humidity, Max Sea Level PressureIn, Mean Sea Level PressureIn, Min Sea Level PressureIn, Max VisibilityMiles, Mean VisibilityMiles, Min VisibilityMiles, Max Wind SpeedMPH, Mean Wind SpeedMPH, Max Gust SpeedMPH,PrecipitationIn, CloudCover, Events, WindDirDegrees
2013-11-1,41,30,19,28,24,19,100,81,49,30.28,30.22,30.07,10,9,0,21,7,28,0.00,2,Fog-Snow,295
2013-11-2,46,30,15,28,22,14,100,75,40,30.29,30.06,29.80,10,10,10,9,5,,0.00,0,,168
2013-11-3,32,23,14,30,18,5,100,71,32,29.95,29.81,29.74,10,10,5,21,8,30,0.00,4,Snow,291
2013-11-4,26,17,8,18,11,5,100,78,46,30.03,29.95,29.91,10,10,5,14,2,,0.00,4,,294
2013-11-5,30,18,5,12,7,1,93,68,34,30.21,30.12,30.03,10,10,10,18,8,26,0.00,1,,299
2013-11-6,37,27,17,27,20,14,100,77,52,30.40,30.29,30.20,10,10,5,28,6,34,0.00,6,Snow,295
2013-11-7,39,32,26,32,29,23,100,90,70,30.40,30.27,29.98,10,10,2,9,2,,0.00,7,Snow,100
2013-11-8,42,36,30,32,25,16,100,68,39,30.12,30.03,29.95,10,10,5,28,8,32,0.00,7,Snow,304
2013-11-9,46,34,21,25,21,19,93,66,37,30.30,30.21,30.12,10,10,10,8,4,,0.00,2,,290
2013-11-10,51,34,17,28,23,18,100,76,38,30.35,30.32,30.28,10,10,10,7,5,,0.00,1,,295
2013-11-11,53,35,17,28,21,18,100,71,28,30.55,30.40,30.33,10,10,10,13,6,13,0.00,2,,300
2013-11-12,53,34,15,27,20,14,100,71,26,30.61,30.55,30.47,10,10,10,10,4,,0.00,2,,293
2013-11-13,44,34,23,32,27,21,100,84,49,30.47,30.30,30.21,10,10,10,18,5,25,0.00,4,,297
2013-11-14,42,28,15,27,21,14,100,76,36,30.22,30.03,29.77,10,10,10,9,3,,0.00,1,,312
2013-11-15,35,25,15,23,19,12,100,76,48,29.77,29.67,29.58,10,10,10,16,5,23,0.00,4,,300
2013-11-16,32,23,14,27,20,10,100,85,60,29.62,29.48,29.40,10,7,0,24,7,33,0.00,6,Snow,221
2013-11-17,28,17,6,23,14,5,100,89,64,30.15,29.96,29.63,10,9,1,12,5,,0.00,5,Snow,301
2013-11-18,41,24,6,25,16,5,100,80,45,30.22,30.16,30.03,10,10,10,8,4,,0.00,0,,291
2013-11-19,37,27,17,32,26,18,100,88,70,30.03,29.92,29.85,10,10,10,7,3,,0.00,6,,281
2013-11-20,42,34,26,32,29,25,100,87,53,29.92,29.87,29.80,10,9,1,13,2,17,0.00,7,Snow,143
2013-11-21,30,18,5,30,16,3,100,91,74,30.47,30.19,29.90,10,7,0,14,7,17,0.00,7,Snow,255
2013-11-22,26,8,-11,14,-2,-17,92,82,54,30.49,30.46,30.43,10,10,1,9,4,,0.00,0,Snow,296
2013-11-23,32,12,-9,19,2,-13,100,82,55,30.47,30.37,30.23,10,10,10,10,4,,0.00,0,,296
2013-11-24,30,12,-5,14,3,-9,100,79,47,30.22,30.15,30.08,10,10,10,10,5,,0.00,0,,297
2013-11-25,33,17,1,21,12,0,92,76,60,30.36,30.27,30.18,10,10,10,23,4,29,0.00,0,,340
2013-11-26,35,20,5,23,15,3,100,83,52,30.43,30.37,30.32,10,10,10,9,1,,0.00,0,,306
2013-11-27,37,22,6,27,14,5,100,86,56,30.31,30.22,30.15,10,10,10,8,5,,0.00,1,,296
2013-11-28,35,22,8,25,15,9,100,87,60,30.20,30.17,30.14,10,10,10,8,5,,0.00,1,,297
2013-11-29,37,21,5,25,14,3,100,85,52,30.27,30.23,30.19,10,10,7,9,5,,0.00,1,,295
2013-11-30,37,22,8,28,19,7,100,84,56,30.29,30.25,30.21,10,10,10,10,4,,0.00,5,,289